Time;durP1;ratioP1;P1;durP2;ratioP2;P2;SDS_P1;SDS_P2;PMS_P1;PMS_P2;Temp;Humidity;BMP_temperature;BMP_pressure;BME280_temperature;BME280_humidity;BME280_pressure;Samples;Min_cycle;Max_cycle;Signal;HPM_P1;HPM_P2
2022/11/26 00:00:20;;;;;;;79.38;15.95;;;5.30;99.90;;;;;;5032968;28;20070;-74
2022/11/26 00:02:47;;;;;;;100.82;16.55;;;5.30;99.90;;;;;;5029331;28;20037;-73
2022/11/26 00:05:14;;;;;;;168.35;18.05;;;5.30;99.90;;;;;;5023054;28;20140;-74
2022/11/26 00:07:42;;;;;;;125.05;17.50;;;5.30;99.90;;;;;;5044894;28;20424;-73
2022/11/26 00:10:20;;;;;;;133.13;17.30;;;5.30;99.90;;;;;;5031684;28;20438;-74
2022/11/26 00:12:46;;;;;;;145.95;18.45;;;5.40;99.90;;;;;;5025811;28;20037;-73
2022/11/26 00:15:23;;;;;;;153.32;19.17;;;5.30;99.90;;;;;;5025896;28;20040;-73
2022/11/26 00:17:50;;;;;;;122.28;18.50;;;5.30;99.90;;;;;;5026964;28;20025;-73
2022/11/26 00:20:17;;;;;;;161.85;19.73;;;5.40;99.90;;;;;;5033723;28;20018;-73
2022/11/26 00:22:54;;;;;;;120.50;18.67;;;5.40;99.90;;;;;;5023106;28;20075;-76
2022/11/26 00:25:26;;;;;;;112.50;18.23;;;5.40;99.90;;;;;;5021906;28;20024;-73
2022/11/26 00:27:54;;;;;;;123.90;19.10;;;5.40;99.90;;;;;;5039474;28;20120;-73
2022/11/26 00:30:22;;;;;;;75.65;18.23;;;5.40;99.90;;;;;;5021445;28;20029;-73
2022/11/26 00:32:48;;;;;;;159.02;20.45;;;5.40;99.90;;;;;;5023614;28;20543;-73
2022/11/26 00:35:14;;;;;;;120.45;18.52;;;5.50;99.90;;;;;;5032399;28;20033;-74
2022/11/26 00:37:55;;;;;;;117.68;18.73;;;5.50;99.90;;;;;;5027226;28;20068;-74
2022/11/26 00:40:26;;;;;;;117.88;18.88;;;5.50;99.90;;;;;;5028357;28;20033;-74
2022/11/26 00:42:53;;;;;;;134.32;19.85;;;5.50;99.90;;;;;;5034165;28;20037;-73
2022/11/26 00:45:22;;;;;;;161.82;20.63;;;5.50;99.90;;;;;;5030480;28;20105;-73
2022/11/26 00:47:48;;;;;;;155.43;21.17;;;5.50;99.90;;;;;;5035706;28;20049;-74
2022/11/26 00:50:19;;;;;;;161.88;19.25;;;5.50;99.90;;;;;;5039316;28;20096;-73
2022/11/26 00:52:47;;;;;;;132.55;18.85;;;5.50;99.90;;;;;;5028190;28;20032;-73
2022/11/26 00:55:27;;;;;;;118.10;19.90;;;5.50;99.90;;;;;;5035446;28;20086;-74
2022/11/26 00:57:53;;;;;;;149.55;20.27;;;5.50;99.90;;;;;;5021238;28;20109;-73
2022/11/26 01:00:22;;;;;;;119.07;18.17;;;5.50;99.90;;;;;;5031918;28;20036;-74
2022/11/26 01:02:48;;;;;;;132.10;19.30;;;5.50;99.90;;;;;;5015072;28;20092;-74
2022/11/26 01:05:14;;;;;;;119.90;19.67;;;5.50;99.90;;;;;;5031374;28;20026;-73
2022/11/26 01:07:41;;;;;;;114.05;19.35;;;5.60;99.90;;;;;;5029620;28;20108;-74
2022/11/26 01:10:18;;;;;;;95.93;19.17;;;5.50;99.90;;;;;;5035023;28;20101;-73
2022/11/26 01:12:44;;;;;;;123.80;19.73;;;5.50;99.90;;;;;;5031777;28;20041;-73
2022/11/26 01:15:10;;;;;;;87.97;19.67;;;5.60;99.90;;;;;;5021407;28;20033;-73
2022/11/26 01:17:36;;;;;;;133.45;20.90;;;5.60;99.90;;;;;;5031324;28;20104;-74
2022/11/26 01:20:02;;;;;;;117.70;21.02;;;5.60;99.90;;;;;;5039403;28;20476;-74
2022/11/26 01:22:27;;;;;;;91.55;18.65;;;5.60;99.90;;;;;;5030059;28;20122;-73
2022/11/26 01:24:53;;;;;;;88.38;21.92;;;5.60;99.90;;;;;;5037077;28;20037;-74
2022/11/26 01:27:19;;;;;;;112.85;21.13;;;5.60;99.90;;;;;;5043178;28;20047;-74
2022/11/26 01:29:45;;;;;;;107.50;22.98;;;5.60;99.90;;;;;;5028591;28;20041;-74
2022/11/26 01:32:11;;;;;;;110.05;22.05;;;5.60;99.90;;;;;;5022059;28;20029;-73
2022/11/26 01:34:36;;;;;;;113.40;22.38;;;5.60;99.90;;;;;;5032736;28;20327;-73
2022/11/26 01:37:09;;;;;;;118.90;22.80;;;5.70;99.90;;;;;;5043164;28;20361;-74
2022/11/26 01:39:34;;;;;;;97.32;22.38;;;5.60;99.90;;;;;;5049801;28;20036;-72
2022/11/26 01:42:39;;;;;;;106.15;23.02;;;5.60;99.90;;;;;;5034934;28;20029;-74
2022/11/26 01:45:16;;;;;;;139.57;21.98;;;5.60;99.90;;;;;;5017024;28;20072;-75
2022/11/26 01:47:42;;;;;;;116.05;20.90;;;5.60;99.90;;;;;;5027862;28;20057;-74
2022/11/26 01:50:26;;;;;;;121.30;23.40;;;5.60;99.90;;;;;;5025412;28;20550;-74
2022/11/26 01:52:58;;;;;;;97.43;21.05;;;5.60;99.90;;;;;;5021214;28;20641;-73
2022/11/26 01:55:24;;;;;;;116.65;23.80;;;5.60;99.90;;;;;;5036498;28;20029;-74
2022/11/26 01:57:50;;;;;;;137.57;24.23;;;5.60;99.90;;;;;;5032760;28;20033;-74
2022/11/26 02:00:15;;;;;;;90.35;22.35;;;5.60;99.90;;;;;;5031024;28;20040;-74
2022/11/26 02:02:42;;;;;;;93.88;22.80;;;5.60;99.90;;;;;;5029333;28;20100;-76
2022/11/26 02:05:18;;;;;;;115.55;22.77;;;5.50;99.90;;;;;;5027080;28;20136;-74
2022/11/26 02:07:44;;;;;;;89.05;19.42;;;5.50;99.90;;;;;;5034869;28;20067;-73
2022/11/26 02:10:12;;;;;;;109.50;22.45;;;5.50;99.90;;;;;;5030374;28;20025;-73
2022/11/26 02:12:38;;;;;;;122.70;22.23;;;5.50;99.90;;;;;;5021756;28;20042;-73
2022/11/26 02:15:04;;;;;;;134.25;23.13;;;5.50;99.90;;;;;;5027593;28;20124;-74
2022/11/26 02:17:36;;;;;;;164.60;24.75;;;5.50;99.90;;;;;;5028631;28;20434;-73
2022/11/26 02:20:33;;;;;;;121.65;23.85;;;5.50;99.90;;;;;;5031670;28;20028;-73
2022/11/26 02:23:23;;;;;;;89.90;20.08;;;5.50;99.90;;;;;;5016068;28;20054;-75
2022/11/26 02:26:12;;;;;;;155.43;24.20;;;5.50;99.90;;;;;;5032207;28;20140;-73
2022/11/26 02:29:02;;;;;;;121.80;23.58;;;5.50;99.90;;;;;;5031222;28;20084;-74
2022/11/26 02:32:04;;;;;;;148.23;23.58;;;5.50;99.90;;;;;;5026971;28;20100;-74
2022/11/26 02:34:42;;;;;;;127.20;23.80;;;5.50;99.90;;;;;;5022309;28;20036;-73
2022/11/26 02:37:15;;;;;;;181.48;25.05;;;5.50;99.90;;;;;;5030679;28;20180;-74
2022/11/26 02:39:40;;;;;;;115.43;24.45;;;5.40;99.90;;;;;;5027550;28;20055;-74
2022/11/26 02:42:31;;;;;;;104.72;21.73;;;5.40;99.90;;;;;;5036797;28;20437;-74
2022/11/26 02:45:01;;;;;;;120.25;23.08;;;5.40;99.90;;;;;;5024155;28;20029;-74
2022/11/26 02:47:28;;;;;;;86.97;19.40;;;5.40;99.90;;;;;;5028491;28;20100;-73
2022/11/26 02:49:59;;;;;;;111.38;20.67;;;5.40;99.90;;;;;;5033746;28;20053;-75
2022/11/26 02:52:27;;;;;;;143.88;24.30;;;5.30;99.90;;;;;;5023906;28;20029;-74
2022/11/26 02:54:54;;;;;;;103.78;20.58;;;5.30;99.90;;;;;;5041916;28;20049;-75
2022/11/26 02:57:25;;;;;;;82.53;19.17;;;5.30;99.90;;;;;;5026591;28;20353;-74
2022/11/26 02:59:51;;;;;;;99.47;21.00;;;5.30;99.90;;;;;;5026651;28;20036;-74
2022/11/26 03:02:49;;;;;;;98.30;20.35;;;5.30;99.90;;;;;;5034434;28;20463;-74
2022/11/26 03:05:17;;;;;;;87.38;18.92;;;5.20;99.90;;;;;;5024079;28;20128;-74
2022/11/26 03:07:46;;;;;;;86.75;19.30;;;5.20;99.90;;;;;;5025486;28;20053;-74
2022/11/26 03:10:12;;;;;;;94.38;20.60;;;5.20;99.90;;;;;;5027771;28;20033;-74
2022/11/26 03:12:38;;;;;;;91.38;20.35;;;5.10;99.90;;;;;;5027444;28;20038;-74
2022/11/26 03:15:04;;;;;;;112.90;19.30;;;5.10;99.90;;;;;;5031356;28;20295;-74
2022/11/26 03:17:29;;;;;;;86.40;19.60;;;5.10;99.90;;;;;;5036510;28;20038;-74
2022/11/26 03:19:55;;;;;;;74.15;19.40;;;5.10;99.90;;;;;;5033184;28;20028;-74
2022/11/26 03:22:20;;;;;;;82.10;19.13;;;5.00;99.90;;;;;;5028221;28;20362;-74
2022/11/26 03:24:46;;;;;;;84.88;17.55;;;5.00;99.90;;;;;;5028253;28;20033;-74
2022/11/26 03:27:12;;;;;;;76.00;17.17;;;5.00;99.90;;;;;;5026188;28;20090;-74
2022/11/26 03:29:38;;;;;;;113.97;19.65;;;5.00;99.90;;;;;;5020723;28;20359;-74
2022/11/26 03:32:03;;;;;;;104.95;19.95;;;5.00;99.90;;;;;;5029194;28;20034;-74
2022/11/26 03:34:29;;;;;;;96.80;19.35;;;5.00;99.90;;;;;;5033909;28;20035;-74
2022/11/26 03:36:55;;;;;;;103.05;19.65;;;5.00;99.90;;;;;;5035577;28;20396;-74
2022/11/26 03:39:20;;;;;;;105.88;20.15;;;5.00;99.90;;;;;;5026585;28;20040;-75
2022/11/26 03:41:46;;;;;;;113.50;20.38;;;5.00;99.90;;;;;;5020687;28;20022;-74
2022/11/26 03:44:12;;;;;;;97.10;20.00;;;5.00;99.90;;;;;;5031944;28;20038;-74
2022/11/26 03:46:38;;;;;;;107.25;18.88;;;5.00;99.90;;;;;;5021470;28;20083;-74
2022/11/26 03:49:03;;;;;;;96.25;18.88;;;5.00;99.90;;;;;;5017858;28;20034;-74
2022/11/26 03:51:29;;;;;;;96.10;20.25;;;5.00;99.90;;;;;;5032995;28;20103;-74
2022/11/26 03:53:54;;;;;;;90.13;19.75;;;5.00;99.90;;;;;;5027862;28;20037;-74
2022/11/26 03:56:20;;;;;;;78.50;19.45;;;5.10;99.90;;;;;;5040939;28;20029;-76
2022/11/26 03:58:45;;;;;;;124.72;22.20;;;5.10;99.90;;;;;;5028312;28;20378;-75
2022/11/26 04:01:12;;;;;;;96.47;20.60;;;5.00;99.90;;;;;;5031611;28;20025;-74
2022/11/26 04:03:38;;;;;;;116.78;19.58;;;5.00;99.90;;;;;;5019286;28;20419;-74
2022/11/26 04:06:04;;;;;;;95.47;20.42;;;5.10;99.90;;;;;;5027855;28;20026;-74
2022/11/26 04:08:29;;;;;;;91.07;21.45;;;5.10;99.90;;;;;;5025487;28;20033;-74
2022/11/26 04:10:55;;;;;;;82.50;20.30;;;5.10;99.90;;;;;;5019655;28;20022;-74
2022/11/26 04:13:20;;;;;;;90.25;20.70;;;5.10;99.90;;;;;;5030500;28;20029;-74
2022/11/26 04:15:47;;;;;;;98.22;20.45;;;5.10;99.90;;;;;;5043954;28;20040;-74
2022/11/26 04:18:12;;;;;;;120.68;21.42;;;5.10;99.90;;;;;;5040882;28;20338;-74
2022/11/26 04:20:38;;;;;;;125.25;22.60;;;5.10;99.90;;;;;;5022544;28;20120;-73
2022/11/26 04:23:04;;;;;;;131.80;22.67;;;5.10;99.90;;;;;;5024832;28;20049;-74
2022/11/26 04:25:29;;;;;;;139.85;23.08;;;5.00;99.90;;;;;;5028785;28;20346;-73
2022/11/26 04:27:55;;;;;;;132.77;22.48;;;5.10;99.90;;;;;;5039796;28;20046;-74
2022/11/26 04:30:21;;;;;;;158.23;24.33;;;5.10;99.90;;;;;;5040967;28;20043;-74
2022/11/26 04:32:46;;;;;;;169.43;22.63;;;5.10;99.90;;;;;;5029529;28;20446;-74
2022/11/26 04:35:11;;;;;;;139.32;22.15;;;5.10;99.90;;;;;;5026454;28;20029;-74
2022/11/26 04:37:37;;;;;;;155.95;23.67;;;5.10;99.90;;;;;;5034633;28;20022;-75
2022/11/26 04:40:03;;;;;;;151.85;22.80;;;5.10;99.90;;;;;;5037909;28;20449;-73
2022/11/26 04:42:28;;;;;;;137.20;21.40;;;5.10;99.90;;;;;;5030709;28;20045;-74
2022/11/26 04:44:53;;;;;;;126.93;21.15;;;5.10;99.90;;;;;;5023457;28;20044;-74
2022/11/26 04:47:19;;;;;;;106.60;20.48;;;5.00;99.90;;;;;;5013878;28;20030;-74
2022/11/26 04:49:44;;;;;;;136.75;23.10;;;5.00;99.90;;;;;;5023456;28;20100;-74
2022/11/26 04:52:10;;;;;;;135.38;22.15;;;5.00;99.90;;;;;;5031908;28;20105;-74
2022/11/26 04:54:35;;;;;;;137.27;22.20;;;5.00;99.90;;;;;;5031877;28;20025;-73
2022/11/26 04:57:01;;;;;;;123.47;22.48;;;5.00;99.90;;;;;;5024232;28;20433;-73
2022/11/26 04:59:26;;;;;;;99.75;21.73;;;5.00;99.90;;;;;;5033492;28;20025;-73
2022/11/26 05:01:52;;;;;;;124.55;21.75;;;4.90;99.90;;;;;;5045801;28;20124;-76
2022/11/26 05:04:19;;;;;;;124.25;22.40;;;4.90;99.90;;;;;;5026279;28;20033;-74
2022/11/26 05:06:44;;;;;;;119.65;21.85;;;4.90;99.90;;;;;;5038935;28;20107;-74
2022/11/26 05:09:10;;;;;;;125.20;21.33;;;4.90;99.90;;;;;;5041682;28;20517;-74
2022/11/26 05:11:35;;;;;;;100.60;21.15;;;4.90;99.90;;;;;;5033883;28;20095;-74
2022/11/26 05:14:01;;;;;;;157.25;23.33;;;4.90;99.90;;;;;;5030686;28;20070;-74
2022/11/26 05:16:26;;;;;;;122.97;20.95;;;4.90;99.90;;;;;;5032054;28;20033;-74
2022/11/26 05:18:51;;;;;;;118.72;19.17;;;4.90;99.90;;;;;;5032225;28;20464;-74
2022/11/26 05:21:17;;;;;;;88.75;19.80;;;4.90;99.90;;;;;;5029730;28;20029;-74
2022/11/26 05:23:42;;;;;;;120.82;20.10;;;4.80;99.90;;;;;;5033327;28;20412;-74
2022/11/26 05:26:08;;;;;;;112.25;20.10;;;4.90;99.90;;;;;;5039361;28;20037;-74
2022/11/26 05:28:33;;;;;;;108.40;19.88;;;4.80;99.90;;;;;;5019919;28;20385;-78
2022/11/26 05:31:00;;;;;;;85.85;19.77;;;4.80;99.90;;;;;;5026234;28;20031;-79
2022/11/26 05:33:26;;;;;;;96.65;19.35;;;4.80;99.90;;;;;;5032495;28;20025;-77
2022/11/26 05:35:52;;;;;;;106.05;21.40;;;4.80;99.90;;;;;;5020887;28;20477;-77
2022/11/26 05:38:17;;;;;;;97.07;20.38;;;4.80;99.90;;;;;;5027375;28;20061;-78
2022/11/26 05:40:43;;;;;;;87.63;19.00;;;4.80;99.90;;;;;;5040256;28;20299;-78
2022/11/26 05:43:08;;;;;;;117.50;19.95;;;4.80;99.90;;;;;;5024979;28;20037;-77
2022/11/26 05:45:34;;;;;;;88.78;19.27;;;4.80;99.90;;;;;;5024771;28;20403;-77
2022/11/26 05:48:00;;;;;;;90.22;19.55;;;4.80;99.90;;;;;;5030885;28;20033;-77
2022/11/26 05:50:25;;;;;;;93.75;20.90;;;4.70;99.90;;;;;;5030262;28;20432;-78
2022/11/26 05:52:50;;;;;;;91.43;20.15;;;4.80;99.90;;;;;;5037522;28;20101;-77
2022/11/26 05:55:17;;;;;;;112.15;21.88;;;4.80;99.90;;;;;;5030531;28;20113;-78
2022/11/26 05:57:42;;;;;;;95.43;20.17;;;4.80;99.90;;;;;;5036625;28;20441;-77
2022/11/26 06:00:09;;;;;;;86.00;20.10;;;4.80;99.90;;;;;;5026548;28;20036;-78
2022/11/26 06:02:35;;;;;;;97.03;21.02;;;4.80;99.90;;;;;;5027586;28;20063;-78
2022/11/26 06:05:01;;;;;;;82.03;20.80;;;4.70;99.90;;;;;;5017583;28;20037;-77
2022/11/26 06:07:27;;;;;;;114.05;20.80;;;4.70;99.90;;;;;;5027345;28;20033;-77
2022/11/26 06:09:52;;;;;;;91.72;20.90;;;4.70;99.90;;;;;;5027019;28;20034;-77
2022/11/26 06:12:18;;;;;;;90.47;20.63;;;4.70;99.90;;;;;;5025228;28;20395;-77
2022/11/26 06:14:43;;;;;;;102.95;19.88;;;4.60;99.90;;;;;;5022544;28;20034;-77
2022/11/26 06:17:10;;;;;;;94.32;18.02;;;4.60;99.90;;;;;;5028390;28;20106;-78
2022/11/26 06:19:35;;;;;;;76.10;19.63;;;4.60;99.90;;;;;;5030589;28;20056;-77
2022/11/26 06:22:01;;;;;;;72.55;16.65;;;4.60;99.90;;;;;;5027616;28;20053;-77
2022/11/26 06:24:26;;;;;;;88.13;18.00;;;4.50;99.90;;;;;;5027872;28;20044;-77
2022/11/26 06:26:52;;;;;;;64.68;16.52;;;4.40;99.90;;;;;;5028998;28;20544;-78
2022/11/26 06:29:17;;;;;;;79.43;17.40;;;4.40;99.90;;;;;;5028168;28;20096;-78
2022/11/26 06:31:42;;;;;;;62.58;16.45;;;4.40;99.90;;;;;;5013364;28;20049;-73
2022/11/26 06:34:08;;;;;;;70.72;16.27;;;4.30;99.90;;;;;;5019663;28;20033;-73
2022/11/26 06:36:33;;;;;;;94.45;16.20;;;4.30;99.90;;;;;;5018340;28;20453;-73
2022/11/26 06:38:59;;;;;;;69.43;15.30;;;4.20;99.90;;;;;;5033487;28;20029;-73
2022/11/26 06:41:24;;;;;;;77.57;15.50;;;4.10;99.90;;;;;;5031347;28;20029;-74
2022/11/26 06:43:50;;;;;;;54.08;14.75;;;4.10;99.90;;;;;;5024036;28;20038;-74
2022/11/26 06:46:15;;;;;;;49.75;14.80;;;4.10;99.90;;;;;;5026145;28;20052;-73
2022/11/26 06:48:41;;;;;;;67.65;15.43;;;4.10;99.90;;;;;;5030757;28;20065;-73
2022/11/26 06:51:11;;;;;;;51.05;13.98;;;4.00;99.90;;;;;;5030381;28;20390;-73
2022/11/26 06:53:37;;;;;;;66.15;15.70;;;3.90;99.90;;;;;;5020784;28;20103;-74
2022/11/26 06:56:06;;;;;;;54.25;14.25;;;3.90;99.90;;;;;;5025252;28;20398;-73
2022/11/26 06:58:32;;;;;;;53.55;14.35;;;3.90;99.90;;;;;;5023184;28;20114;-74
2022/11/26 07:01:07;;;;;;;57.90;14.50;;;3.80;99.90;;;;;;5025419;28;20468;-74
2022/11/26 07:03:32;;;;;;;51.30;13.35;;;3.70;99.90;;;;;;5036448;28;20044;-73
2022/11/26 07:05:58;;;;;;;57.03;14.85;;;3.70;99.90;;;;;;5024785;28;20478;-73
2022/11/26 07:08:23;;;;;;;50.92;15.07;;;3.80;99.90;;;;;;5029971;28;20067;-74
2022/11/26 07:10:49;;;;;;;58.35;14.80;;;3.80;99.90;;;;;;5032356;28;20042;-73
2022/11/26 07:13:14;;;;;;;51.30;14.48;;;3.70;99.90;;;;;;5023972;28;20041;-73
2022/11/26 07:15:40;;;;;;;52.97;14.02;;;3.80;99.90;;;;;;5027359;28;20033;-73
2022/11/26 07:18:06;;;;;;;41.08;14.40;;;3.80;99.90;;;;;;5035041;28;20052;-73
2022/11/26 07:20:31;;;;;;;59.35;15.27;;;3.70;99.90;;;;;;5024629;28;20079;-73
2022/11/26 07:22:57;;;;;;;66.18;15.15;;;3.70;99.90;;;;;;5019738;28;20073;-73
2022/11/26 07:25:22;;;;;;;51.53;14.77;;;3.70;99.90;;;;;;5028660;28;20116;-73
2022/11/26 07:27:47;;;;;;;46.60;14.40;;;3.60;99.90;;;;;;5021785;28;20518;-73
2022/11/26 07:30:13;;;;;;;36.03;14.02;;;3.60;99.90;;;;;;5024515;28;20025;-73
2022/11/26 07:32:39;;;;;;;57.50;14.38;;;3.70;99.90;;;;;;5020286;28;20036;-74
2022/11/26 07:35:05;;;;;;;45.92;14.20;;;3.70;99.90;;;;;;5021788;28;20599;-73
2022/11/26 07:37:34;;;;;;;59.92;15.52;;;3.60;99.90;;;;;;5021293;28;20032;-74
2022/11/26 07:39:59;;;;;;;64.88;15.45;;;3.70;99.90;;;;;;5033395;28;20029;-73
2022/11/26 07:42:28;;;;;;;58.38;14.40;;;3.70;99.90;;;;;;5019887;28;20084;-74
2022/11/26 07:44:53;;;;;;;48.17;15.40;;;3.70;99.90;;;;;;5018162;28;20030;-73
2022/11/26 07:47:19;;;;;;;62.47;15.18;;;3.80;99.90;;;;;;5019531;28;20561;-73
2022/11/26 07:49:44;;;;;;;67.88;16.73;;;3.70;99.90;;;;;;5021581;28;20029;-74
2022/11/26 07:52:10;;;;;;;54.78;16.13;;;3.70;99.90;;;;;;5027372;28;20025;-75
2022/11/26 07:54:36;;;;;;;67.47;15.52;;;3.80;99.90;;;;;;5036679;28;20036;-75
2022/11/26 07:57:01;;;;;;;57.65;15.38;;;3.80;99.90;;;;;;5024952;28;20450;-74
2022/11/26 07:59:27;;;;;;;63.65;15.82;;;3.90;99.90;;;;;;5019372;28;20068;-73
2022/11/26 08:01:52;;;;;;;48.95;15.23;;;3.90;99.90;;;;;;5025357;28;20065;-75
2022/11/26 08:04:18;;;;;;;73.38;16.35;;;3.90;99.90;;;;;;5015701;28;20030;-73
2022/11/26 08:06:43;;;;;;;74.70;15.23;;;3.90;99.90;;;;;;5028504;28;20173;-75
2022/11/26 08:09:09;;;;;;;70.60;16.48;;;4.00;99.90;;;;;;5030330;28;20091;-73
2022/11/26 08:11:34;;;;;;;56.97;15.68;;;4.00;99.90;;;;;;5028656;28;20358;-74
2022/11/26 08:14:06;;;;;;;63.75;17.27;;;4.00;99.90;;;;;;5024299;28;20061;-75
2022/11/26 08:16:32;;;;;;;62.58;16.20;;;4.10;99.90;;;;;;5021773;28;20114;-75
2022/11/26 08:18:59;;;;;;;59.72;15.93;;;4.10;99.90;;;;;;5022670;28;20018;-74
2022/11/26 08:21:25;;;;;;;68.00;17.02;;;4.10;99.90;;;;;;5022750;28;20048;-74
2022/11/26 08:23:52;;;;;;;57.22;16.08;;;4.10;99.90;;;;;;5025601;28;20025;-73
2022/11/26 08:26:18;;;;;;;46.42;15.82;;;4.10;99.90;;;;;;5026948;28;20097;-73
2022/11/26 08:28:45;;;;;;;80.93;16.25;;;4.10;99.90;;;;;;5025405;28;20037;-74
2022/11/26 08:31:12;;;;;;;59.65;16.20;;;4.10;99.90;;;;;;5033418;28;20136;-73
2022/11/26 08:33:38;;;;;;;49.33;16.55;;;4.10;99.90;;;;;;5024102;28;20410;-74
2022/11/26 08:36:04;;;;;;;52.20;16.15;;;4.20;99.90;;;;;;5024976;28;20068;-73
2022/11/26 08:38:29;;;;;;;77.00;18.25;;;4.20;99.90;;;;;;5018615;28;20018;-74
2022/11/26 08:40:59;;;;;;;62.72;14.93;;;4.30;99.90;;;;;;5018877;28;20040;-75
2022/11/26 08:43:25;;;;;;;56.80;16.15;;;4.20;99.90;;;;;;5015123;28;20039;-73
2022/11/26 08:45:55;;;;;;;41.90;14.88;;;4.20;99.90;;;;;;5025099;28;20045;-75
2022/11/26 08:48:22;;;;;;;53.20;14.87;;;4.20;99.90;;;;;;5023006;28;20463;-74
2022/11/26 08:50:47;;;;;;;58.75;14.73;;;4.30;99.90;;;;;;5025059;28;20108;-74
2022/11/26 08:53:13;;;;;;;67.30;15.57;;;4.30;99.90;;;;;;5016148;28;20129;-74
2022/11/26 08:55:39;;;;;;;51.28;14.63;;;4.40;99.90;;;;;;5021385;28;20106;-74
2022/11/26 08:58:04;;;;;;;54.90;13.20;;;4.40;99.90;;;;;;5017437;28;20045;-76
2022/11/26 09:00:30;;;;;;;72.88;14.75;;;4.40;99.90;;;;;;5014425;28;20064;-74
2022/11/26 09:02:55;;;;;;;64.30;13.98;;;4.40;99.90;;;;;;5026232;28;20116;-73
2022/11/26 09:05:21;;;;;;;47.83;14.73;;;4.30;99.90;;;;;;5027129;28;20029;-74
2022/11/26 09:07:46;;;;;;;60.17;13.32;;;4.30;99.90;;;;;;5029000;28;20349;-74
2022/11/26 09:10:12;;;;;;;57.00;14.27;;;4.20;99.90;;;;;;5025305;28;20034;-73
2022/11/26 09:12:37;;;;;;;44.15;12.57;;;4.20;99.90;;;;;;5021207;28;20132;-73
2022/11/26 09:15:03;;;;;;;41.67;12.98;;;4.20;99.90;;;;;;5025881;28;20087;-74
2022/11/26 09:17:29;;;;;;;47.53;12.73;;;4.20;99.90;;;;;;5027209;28;20045;-75
2022/11/26 09:19:55;;;;;;;47.40;13.63;;;4.40;99.90;;;;;;5031045;28;20030;-75
2022/11/26 09:22:21;;;;;;;41.20;13.85;;;4.50;99.90;;;;;;5028580;28;20064;-75
2022/11/26 09:24:47;;;;;;;34.10;13.98;;;4.50;99.90;;;;;;5029126;28;20449;-75
2022/11/26 09:27:12;;;;;;;48.05;13.85;;;4.60;99.90;;;;;;5028011;28;20072;-74
2022/11/26 09:29:37;;;;;;;37.92;13.30;;;4.40;99.90;;;;;;5029260;28;20033;-75
2022/11/26 09:32:03;;;;;;;35.67;12.43;;;4.50;99.90;;;;;;5025273;28;20088;-75
2022/11/26 09:34:29;;;;;;;44.28;13.77;;;4.60;99.90;;;;;;5029973;28;20079;-75
2022/11/26 09:36:54;;;;;;;42.03;13.20;;;4.60;99.90;;;;;;5026035;28;20025;-74
2022/11/26 09:39:20;;;;;;;37.80;13.48;;;4.60;99.90;;;;;;5029208;28;20048;-76
2022/11/26 09:42:20;;;;;;;46.38;13.98;;;4.60;99.90;;;;;;5027991;28;20058;-75
2022/11/26 09:44:54;;;;;;;53.20;13.85;;;4.60;99.90;;;;;;5021344;28;20337;-75
2022/11/26 09:47:26;;;;;;;41.13;14.15;;;4.60;99.90;;;;;;5025766;28;20036;-76
2022/11/26 09:50:15;;;;;;;40.33;14.00;;;4.70;99.90;;;;;;5032292;28;20407;-75
2022/11/26 09:53:11;;;;;;;38.17;14.15;;;4.70;99.90;;;;;;5022080;28;20137;-76
2022/11/26 09:55:40;;;;;;;37.70;14.25;;;4.80;99.90;;;;;;5029033;28;20212;-75
2022/11/26 09:58:14;;;;;;;39.80;13.75;;;4.90;99.90;;;;;;5020156;28;20026;-76
2022/11/26 10:00:45;;;;;;;37.47;13.60;;;5.00;99.90;;;;;;5034360;28;20021;-75
2022/11/26 10:03:32;;;;;;;42.78;15.13;;;5.00;99.90;;;;;;5026912;28;20058;-76
2022/11/26 10:06:29;;;;;;;30.15;13.55;;;5.00;99.90;;;;;;5024682;28;20037;-76
2022/11/26 10:09:08;;;;;;;33.08;14.45;;;5.10;99.90;;;;;;5017688;28;20412;-76
2022/11/26 10:11:47;;;;;;;41.42;13.95;;;5.20;99.90;;;;;;5035723;28;20095;-76
2022/11/26 10:14:48;;;;;;;30.00;12.88;;;5.20;99.90;;;;;;5023565;28;20334;-76
2022/11/26 10:17:25;;;;;;;;;;;5.20;99.90;;;;;;4992348;28;20041;-76
2022/11/26 10:20:13;;;;;;;36.08;12.85;;;5.20;99.90;;;;;;5023869;28;20325;-76
2022/11/26 10:22:55;;;;;;;27.13;13.77;;;5.30;99.90;;;;;;5021399;28;20095;-76
2022/11/26 10:25:27;;;;;;;55.47;13.15;;;5.40;99.90;;;;;;5032048;28;20120;-74
2022/11/26 10:27:55;;;;;;;37.25;12.98;;;5.30;99.90;;;;;;5025206;28;20088;-73
2022/11/26 10:30:27;;;;;;;44.72;12.63;;;5.30;99.90;;;;;;5021467;28;20038;-77
2022/11/26 10:32:55;;;;;;;39.10;13.02;;;5.40;99.90;;;;;;5013383;28;20335;-77
2022/11/26 10:35:27;;;;;;;33.25;12.05;;;5.40;99.90;;;;;;5015709;28;22324;-77
2022/11/26 10:37:55;;;;;;;32.00;12.75;;;5.50;99.90;;;;;;5029147;28;20376;-77
2022/11/26 10:40:25;;;;;;;29.42;12.90;;;5.50;99.90;;;;;;5023015;28;20037;-78
2022/11/26 10:43:08;;;;;;;29.93;13.30;;;5.60;99.90;;;;;;5018107;28;20033;-76
2022/11/26 10:45:43;;;;;;;30.80;13.15;;;5.60;99.90;;;;;;5024243;28;20300;-77
2022/11/26 10:48:16;;;;;;;36.13;12.45;;;5.60;99.90;;;;;;5028197;28;20066;-75
2022/11/26 10:50:52;;;;;;;28.25;12.73;;;5.60;99.90;;;;;;5019119;28;20084;-77
2022/11/26 10:53:21;;;;;;;28.67;11.68;;;5.70;99.90;;;;;;5028478;28;20120;-77
2022/11/26 10:55:47;;;;;;;23.08;12.23;;;5.70;99.90;;;;;;5024664;28;20032;-77
2022/11/26 10:58:20;;;;;;;24.15;11.63;;;5.70;99.90;;;;;;5023203;28;20041;-77
2022/11/26 11:00:48;;;;;;;30.63;12.25;;;5.80;99.90;;;;;;5021849;28;20099;-77
2022/11/26 11:03:18;;;;;;;25.38;12.68;;;5.80;99.90;;;;;;5021512;28;20029;-77
2022/11/26 11:05:44;;;;;;;24.23;12.50;;;5.90;99.90;;;;;;5019753;28;20489;-77
2022/11/26 11:08:32;;;;;;;24.65;11.60;;;5.80;99.90;;;;;;5025899;28;20125;-77
2022/11/26 11:11:02;;;;;;;23.63;12.68;;;6.00;99.90;;;;;;5015884;28;20164;-77
2022/11/26 11:13:41;;;;;;;23.88;13.57;;;6.00;99.90;;;;;;5027049;28;20021;-77
2022/11/26 11:16:08;;;;;;;21.88;12.27;;;6.00;99.90;;;;;;5021235;28;20091;-77
2022/11/26 11:18:34;;;;;;;24.23;13.02;;;6.00;99.90;;;;;;5025085;28;20066;-77
2022/11/26 11:21:02;;;;;;;23.42;12.40;;;6.10;99.90;;;;;;5021556;28;20106;-77
2022/11/26 11:23:37;;;;;;;26.13;13.15;;;6.10;99.90;;;;;;5024243;28;20118;-76
2022/11/26 11:26:09;;;;;;;25.48;13.68;;;6.10;99.90;;;;;;5017372;28;20128;-77
2022/11/26 11:28:41;;;;;;;29.73;14.38;;;6.10;99.90;;;;;;5016655;28;20117;-78
2022/11/26 11:31:13;;;;;;;27.75;13.73;;;6.10;99.90;;;;;;5041499;28;20505;-78
2022/11/26 11:33:39;;;;;;;30.77;13.75;;;6.10;99.90;;;;;;5023316;28;20030;-78
2022/11/26 11:36:12;;;;;;;33.30;15.48;;;6.10;99.90;;;;;;5024070;28;20049;-78
2022/11/26 11:38:52;;;;;;;29.33;15.07;;;6.20;99.90;;;;;;5027534;28;20037;-78
2022/11/26 11:41:40;;;;;;;28.30;15.07;;;6.30;99.90;;;;;;5026491;28;20739;-77
2022/11/26 11:44:14;;;;;;;28.98;13.90;;;6.20;99.90;;;;;;5032544;28;20373;-78
2022/11/26 11:46:51;;;;;;;29.38;13.82;;;6.20;99.90;;;;;;5025541;28;20086;-77
2022/11/26 11:49:20;;;;;;;33.30;14.95;;;6.30;99.90;;;;;;5034817;28;20093;-77
2022/11/26 11:52:17;;;;;;;34.10;14.07;;;6.40;99.90;;;;;;5029214;28;20324;-77
2022/11/26 11:54:53;;;;;;;28.63;13.48;;;6.40;99.90;;;;;;5021559;28;20045;-78
2022/11/26 11:57:41;;;;;;;28.23;13.77;;;6.40;99.90;;;;;;5026085;28;20111;-77
2022/11/26 12:00:31;;;;;;;30.08;13.15;;;6.50;99.90;;;;;;5026742;28;20291;-78
2022/11/26 12:03:20;;;;;;;30.70;14.35;;;6.50;99.90;;;;;;5022908;28;21037;-77
2022/11/26 12:05:55;;;;;;;32.47;15.18;;;6.60;99.90;;;;;;5021811;28;20108;-79
2022/11/26 12:08:29;;;;;;;28.63;14.18;;;6.60;99.90;;;;;;5031915;28;20140;-79
2022/11/26 12:11:15;;;;;;;28.75;14.70;;;6.60;99.90;;;;;;5026695;28;20030;-79
2022/11/26 12:13:46;;;;;;;26.83;12.52;;;6.60;99.90;;;;;;5022200;28;20483;-79
2022/11/26 12:16:13;;;;;;;29.00;14.10;;;6.60;99.90;;;;;;5025811;28;20026;-77
2022/11/26 12:18:58;;;;;;;24.58;14.55;;;6.60;99.90;;;;;;5024895;28;20033;-77
2022/11/26 12:21:34;;;;;;;24.90;12.90;;;6.70;99.90;;;;;;5025719;28;20307;-78
2022/11/26 12:24:33;;;;;;;31.55;14.18;;;6.80;99.90;;;;;;5027125;28;20068;-78
2022/11/26 12:27:06;;;;;;;25.75;12.93;;;6.70;99.90;;;;;;5022417;28;20052;-78
2022/11/26 12:29:41;;;;;;;29.00;13.27;;;6.90;99.90;;;;;;5020393;28;20094;-78
2022/11/26 12:32:15;;;;;;;23.15;13.48;;;6.70;99.90;;;;;;5024398;28;20029;-78
2022/11/26 12:34:54;;;;;;;25.42;13.88;;;6.70;99.90;;;;;;5022245;28;20033;-79
2022/11/26 12:37:23;;;;;;;26.67;14.15;;;6.70;99.90;;;;;;5031084;28;20032;-77
2022/11/26 12:39:55;;;;;;;30.50;13.45;;;6.80;99.90;;;;;;5042078;28;20052;-78
2022/11/26 12:42:29;;;;;;;23.67;14.10;;;6.80;99.90;;;;;;5029207;28;20044;-79
2022/11/26 12:45:01;;;;;;;30.83;15.25;;;6.80;99.90;;;;;;5024889;28;20066;-76